createdAt,value
2019-03-26T00:01:54.717Z,98151.57
2019-03-26T00:04:59.762Z,98147.81
2019-03-26T00:08:04.493Z,98153.48
2019-03-26T00:11:09.461Z,98154.83
2019-03-26T00:14:13.642Z,98158.88
2019-03-26T00:17:18.786Z,98156.14
2019-03-26T00:20:22.841Z,98157.25
2019-03-26T00:23:27.645Z,98164.80
2019-03-26T00:26:32.988Z,98164.80
2019-03-26T00:29:38.080Z,98164.81
2019-03-26T00:32:42.684Z,98166.67
2019-03-26T00:35:47.453Z,98171.52
2019-03-26T00:38:52.503Z,98170.98
2019-03-26T00:41:57.303Z,98180.13
2019-03-26T00:45:02.141Z,98181.76
2019-03-26T00:48:07.013Z,98182.81
2019-03-26T00:51:12.085Z,98187.14
2019-03-26T00:54:16.747Z,98166.91
2019-03-26T00:57:21.615Z,98195.50
2019-03-26T01:00:39.311Z,98203.88
2019-03-26T01:03:44.142Z,98203.31
2019-03-26T01:06:49.142Z,98206.59
2019-03-26T01:09:54.497Z,98212.55
2019-03-26T01:12:59.301Z,98204.16
2019-03-26T01:16:04.763Z,98207.12
2019-03-26T01:19:09.508Z,98216.02
2019-03-26T01:22:14.780Z,98215.48
2019-03-26T01:25:19.409Z,98213.05
2019-03-26T01:28:24.294Z,98216.29
2019-03-26T01:31:29.692Z,98214.42
2019-03-26T01:34:45.476Z,98222.48
2019-03-26T01:37:40.315Z,98211.14
2019-03-26T01:40:45.387Z,98204.66
2019-03-26T01:43:50.745Z,98223.02
2019-03-26T01:46:54.689Z,98223.02
2019-03-26T01:49:59.844Z,98206.28
2019-03-26T01:53:04.755Z,98205.48
2019-03-26T01:56:08.601Z,98205.48
2019-03-26T01:59:15.273Z,98218.96
2019-03-26T02:02:20.484Z,98218.44
2019-03-26T02:05:25.274Z,98217.37
2019-03-26T02:08:30.139Z,98226.53
2019-03-26T02:11:36.396Z,98230.56
2019-03-26T02:14:41.308Z,98230.56
2019-03-26T02:17:46.285Z,98226.27
2019-03-26T02:20:51.290Z,98221.97
2019-03-26T02:23:56.029Z,98227.32
2019-03-26T02:27:01.730Z,98228.70
2019-03-26T02:30:07.290Z,98226.27
2019-03-26T02:33:12.532Z,98220.61
2019-03-26T02:36:18.810Z,98224.66
2019-03-26T02:39:24.332Z,98214.97
2019-03-26T02:42:29.322Z,98214.97
2019-03-26T02:45:34.307Z,98240.33
2019-03-26T02:48:39.215Z,98236.52
2019-03-26T02:51:43.780Z,98243.55
2019-03-26T02:54:48.911Z,98243.55
2019-03-26T02:57:53.714Z,98248.39
2019-03-26T03:00:58.126Z,98248.39
2019-03-26T03:04:02.747Z,98253.77
2019-03-26T03:07:06.852Z,98248.42
2019-03-26T03:10:12.296Z,98250.27
2019-03-26T03:13:17.310Z,98247.81
2019-03-26T03:16:22.281Z,98247.81
2019-03-26T03:19:27.303Z,98253.52
2019-03-26T03:22:32.067Z,98255.18
2019-03-26T03:25:37.584Z,98256.50
2019-03-26T03:28:42.672Z,98256.50
2019-03-26T03:31:47.721Z,98239.47
2019-03-26T03:34:52.660Z,98255.39
2019-03-26T03:37:57.459Z,98230.32
2019-03-26T03:41:02.334Z,98263.50
2019-03-26T03:44:07.561Z,98268.66
2019-03-26T03:47:12.747Z,98267.02
2019-03-26T03:50:16.842Z,98260.59
2019-03-26T03:53:21.435Z,98273.55
2019-03-26T03:56:27.251Z,98273.55
2019-03-26T03:59:31.966Z,98279.23
2019-03-26T04:02:36.758Z,98288.98
2019-03-26T04:05:41.933Z,98282.45
2019-03-26T04:08:46.937Z,98294.31
2019-03-26T04:11:52.271Z,98294.31
2019-03-26T04:14:56.885Z,98301.62
2019-03-26T04:18:01.948Z,98301.89
2019-03-26T04:21:07.672Z,98301.89
2019-03-26T04:24:13.500Z,98304.32
2019-03-26T04:27:18.293Z,98308.89
2019-03-26T04:30:31.710Z,98311.05
2019-03-26T04:33:35.833Z,98311.61
2019-03-26T04:36:40.492Z,98295.97
2019-03-26T04:39:46.382Z,98295.97
2019-03-26T04:42:51.387Z,98316.48
2019-03-26T04:45:56.540Z,98305.97
2019-03-26T04:49:01.751Z,98311.39
2019-03-26T04:52:05.680Z,98316.78
2019-03-26T04:55:10.053Z,98308.69
2019-03-26T04:58:14.933Z,98320.03
2019-03-26T05:01:20.039Z,98326.52
2019-03-26T05:04:24.761Z,98320.05
2019-03-26T05:07:29.496Z,98322.18
2019-03-26T05:10:35.256Z,98324.90
2019-03-26T05:13:41.014Z,98318.14
2019-03-26T05:16:46.371Z,98324.89
2019-03-26T05:19:51.240Z,98316.52
2019-03-26T05:22:56.397Z,98319.48
2019-03-26T05:26:01.269Z,98322.19
2019-03-26T05:29:06.580Z,98324.61
2019-03-26T05:32:12.324Z,98319.20
2019-03-26T05:35:17.063Z,98319.20
2019-03-26T05:38:22.233Z,98331.63
2019-03-26T05:41:27.386Z,98326.77
2019-03-26T05:44:32.374Z,98335.70
2019-03-26T05:47:38.832Z,98328.66
2019-03-26T05:50:44.331Z,98324.86
2019-03-26T05:53:49.369Z,98325.09
2019-03-26T05:56:54.338Z,98322.97
2019-03-26T06:00:00.373Z,98324.86
2019-03-26T06:03:05.266Z,98324.86
2019-03-26T06:06:10.254Z,98305.62
2019-03-26T06:09:15.273Z,98319.39
2019-03-26T06:12:20.427Z,98313.95
2019-03-26T06:15:25.369Z,98308.48
2019-03-26T06:18:30.486Z,98327.95
2019-03-26T06:21:35.664Z,98337.13
2019-03-26T06:24:40.606Z,98338.06
2019-03-26T06:27:45.551Z,98332.48
2019-03-26T06:30:50.879Z,98326.96
2019-03-26T06:33:55.674Z,98314.70
2019-03-26T06:36:59.670Z,98314.70
2019-03-26T06:40:07.808Z,98337.77
2019-03-26T06:43:12.927Z,98337.77
2019-03-26T06:46:18.040Z,98316.13
2019-03-26T06:49:24.531Z,98316.13
2019-03-26T06:52:29.268Z,98332.75
2019-03-26T06:55:34.283Z,98334.16
2019-03-26T06:58:39.852Z,98339.55
2019-03-26T07:01:44.543Z,98346.80
2019-03-26T07:04:50.170Z,98346.80
2019-03-26T07:07:55.718Z,98352.04
2019-03-26T07:10:59.595Z,98346.98
2019-03-26T07:14:05.108Z,98354.84
2019-03-26T07:17:09.745Z,98368.78
2019-03-26T07:20:13.678Z,98361.80
2019-03-26T07:23:18.972Z,98359.82
2019-03-26T07:26:24.332Z,98358.84
2019-03-26T07:29:29.578Z,98362.45
2019-03-26T07:32:34.954Z,98368.58
2019-03-26T07:35:41.560Z,98379.86
2019-03-26T07:38:46.568Z,98385.30
2019-03-26T07:41:51.439Z,98383.02
2019-03-26T07:44:56.394Z,98388.25
2019-03-26T07:48:01.395Z,98394.92
2019-03-26T07:51:06.805Z,98399.20
2019-03-26T07:54:13.677Z,98407.55
2019-03-26T07:57:18.278Z,98407.55
2019-03-26T08:00:38.637Z,98414.45
2019-03-26T08:03:43.546Z,98406.22
2019-03-26T08:06:48.694Z,98412.08
2019-03-26T08:09:52.978Z,98397.90
2019-03-26T08:12:58.143Z,98419.15
2019-03-26T08:16:03.485Z,98413.04
2019-03-26T08:19:08.258Z,98419.00
2019-03-26T08:22:12.943Z,98421.83
2019-03-26T08:25:18.260Z,98413.99
2019-03-26T08:28:23.500Z,98413.99
2019-03-26T08:31:28.699Z,98431.14
2019-03-26T08:34:33.042Z,98434.11
2019-03-26T08:37:38.140Z,98429.89
2019-03-26T08:40:43.271Z,98426.53
2019-03-26T08:43:48.375Z,98428.48
2019-03-26T08:46:53.750Z,98441.91
2019-03-26T08:49:58.736Z,98442.88
2019-03-26T08:53:04.244Z,98421.48
2019-03-26T08:56:09.074Z,98421.48
2019-03-26T08:59:13.885Z,98433.88
2019-03-26T09:02:18.541Z,98431.06
2019-03-26T09:05:23.461Z,98431.06
2019-03-26T09:08:28.359Z,98430.26
2019-03-26T09:11:33.455Z,98446.18
2019-03-26T09:14:37.885Z,98434.16
2019-03-26T09:17:44.429Z,98443.78
2019-03-26T09:20:49.252Z,98441.34
2019-03-26T09:23:54.391Z,98452.98
2019-03-26T09:26:59.285Z,98451.03
2019-03-26T09:30:06.455Z,98459.18
2019-03-26T09:33:11.442Z,98454.41
2019-03-26T09:36:17.902Z,98450.12
2019-03-26T09:39:22.573Z,98461.12
2019-03-26T09:42:27.249Z,98461.12
2019-03-26T09:45:32.908Z,98458.91
2019-03-26T09:48:37.710Z,98457.23
2019-03-26T09:51:41.637Z,98457.23
2019-03-26T09:54:46.529Z,98467.48
2019-03-26T09:57:53.620Z,98468.34
2019-03-26T10:00:58.919Z,98454.27
2019-03-26T10:04:04.022Z,98435.34
2019-03-26T10:07:20.762Z,98435.34
2019-03-26T10:10:16.697Z,98458.80
2019-03-26T10:13:21.464Z,98449.57
2019-03-26T10:16:26.289Z,98437.17
2019-03-26T10:19:32.340Z,98447.47
2019-03-26T10:22:39.259Z,98433.45
2019-03-26T10:25:44.527Z,98432.81
2019-03-26T10:28:49.640Z,98431.24
2019-03-26T10:31:54.781Z,98427.88
2019-03-26T10:34:59.881Z,98432.66
2019-03-26T10:38:05.446Z,98441.42
2019-03-26T10:41:11.556Z,98441.42
2019-03-26T10:44:16.300Z,98433.66
2019-03-26T10:47:21.736Z,98422.70
2019-03-26T10:50:26.279Z,98418.23
2019-03-26T10:53:31.519Z,98410.16
2019-03-26T10:56:36.834Z,98413.20
2019-03-26T10:59:42.494Z,98401.66
2019-03-26T11:02:47.963Z,98401.66
2019-03-26T11:05:53.359Z,98425.16
2019-03-26T11:08:58.613Z,98411.80
2019-03-26T11:12:04.126Z,98397.38
2019-03-26T11:15:09.752Z,98385.98
2019-03-26T11:18:13.639Z,98395.01
2019-03-26T11:21:20.005Z,98377.27
2019-03-26T11:24:25.143Z,98383.28
2019-03-26T11:27:30.620Z,98393.30
2019-03-26T11:30:35.995Z,98381.59
2019-03-26T11:33:40.706Z,98379.48
2019-03-26T11:36:44.882Z,98380.77
2019-03-26T11:39:50.281Z,98355.33
2019-03-26T11:42:55.528Z,98355.33
2019-03-26T11:46:00.440Z,98376.80
2019-03-26T11:49:05.490Z,98382.63
2019-03-26T11:52:10.252Z,98388.27
2019-03-26T11:55:16.281Z,98377.11
2019-03-26T11:58:30.517Z,98409.86
2019-03-26T12:01:28.640Z,98378.88
2019-03-26T12:04:33.333Z,98388.34
2019-03-26T12:07:38.765Z,98379.78
2019-03-26T12:10:43.010Z,98388.31
2019-03-26T12:13:48.386Z,98372.66
2019-03-26T12:16:53.285Z,98370.36
2019-03-26T12:19:58.259Z,98369.63
2019-03-26T12:23:03.301Z,98360.46
2019-03-26T12:26:09.277Z,98360.73
2019-03-26T12:29:13.990Z,98356.19
2019-03-26T12:32:18.737Z,98358.10
2019-03-26T12:35:29.687Z,98356.71
2019-03-26T12:38:34.594Z,98360.42
2019-03-26T12:41:39.324Z,98332.02
2019-03-26T12:44:44.512Z,98338.29
2019-03-26T12:47:49.344Z,98348.03
2019-03-26T12:50:54.270Z,98334.00
2019-03-26T12:53:59.355Z,98334.37
2019-03-26T12:58:36.278Z,98333.00
2019-03-26T13:15:12.514Z,98319.16
2019-03-26T13:18:17.723Z,98319.05
2019-03-26T13:21:23.266Z,98318.20
2019-03-26T13:24:28.287Z,98324.44
2019-03-26T13:27:33.039Z,98323.81
2019-03-26T13:30:37.762Z,98336.97
2019-03-26T13:33:42.074Z,98330.08
2019-03-26T13:36:50.081Z,98323.92
2019-03-26T13:39:54.840Z,98328.39
2019-03-26T13:43:00.317Z,98351.12
2019-03-26T13:46:05.357Z,98351.12
2019-03-26T13:49:11.432Z,98350.20
2019-03-26T13:52:16.311Z,98360.67
2019-03-26T13:55:21.404Z,98361.19
2019-03-26T13:58:26.353Z,98348.59
2019-03-26T14:01:31.690Z,98348.64
2019-03-26T14:04:37.397Z,98351.89
2019-03-26T14:07:42.447Z,98353.03
2019-03-26T14:10:47.367Z,98355.23
2019-03-26T14:13:54.056Z,98346.43
2019-03-26T14:16:59.365Z,98355.44
2019-03-26T14:20:05.333Z,98345.19
2019-03-26T14:23:10.304Z,98343.88
2019-03-26T14:26:15.382Z,98346.46
2019-03-26T14:29:20.461Z,98344.45
2019-03-26T14:32:25.132Z,98336.84
2019-03-26T14:35:30.160Z,98351.53
2019-03-26T14:38:36.854Z,98337.84
2019-03-26T14:41:44.308Z,98334.56
2019-03-26T14:44:50.164Z,98335.16
2019-03-26T14:47:55.443Z,98330.48
2019-03-26T14:51:02.059Z,98335.98
2019-03-26T14:54:07.704Z,98336.80
2019-03-26T14:57:12.149Z,98334.91
2019-03-26T15:00:18.265Z,98344.99
2019-03-26T15:03:23.465Z,98329.28
2019-03-26T15:06:28.268Z,98344.83
2019-03-26T15:09:34.506Z,98324.95
2019-03-26T15:12:40.430Z,98333.50
2019-03-26T15:15:45.304Z,98337.09
2019-03-26T15:18:51.749Z,98339.15
2019-03-26T15:21:56.796Z,98339.58
2019-03-26T15:25:02.267Z,98345.48
2019-03-26T15:28:07.548Z,98343.86
2019-03-26T15:31:13.230Z,98349.25
2019-03-26T15:34:18.651Z,98340.75
2019-03-26T15:37:23.367Z,98343.95
2019-03-26T15:40:28.341Z,98337.94
2019-03-26T15:43:35.325Z,98339.01
2019-03-26T15:46:40.337Z,98349.36
2019-03-26T15:49:46.321Z,98330.20
2019-03-26T15:52:51.259Z,98328.14
2019-03-26T15:55:57.778Z,98329.58
2019-03-26T15:59:03.295Z,98329.73
2019-03-26T16:02:08.228Z,98326.97
2019-03-26T16:05:13.300Z,98326.77
2019-03-26T16:08:18.704Z,98330.56
2019-03-26T16:11:35.059Z,98332.91
2019-03-26T16:14:32.557Z,98326.13
2019-03-26T16:17:37.286Z,98332.54
2019-03-26T16:20:43.211Z,98330.43
2019-03-26T16:23:48.283Z,98327.27
2019-03-26T16:26:53.431Z,98330.38
2019-03-26T16:29:59.432Z,98341.95
2019-03-26T16:33:05.338Z,98345.06
2019-03-26T16:36:10.126Z,98336.48
2019-03-26T16:39:14.887Z,98347.25
2019-03-26T16:42:20.317Z,98344.98
2019-03-26T16:45:27.132Z,98344.98
2019-03-26T16:48:32.301Z,98348.27
2019-03-26T16:51:37.883Z,98351.77
2019-03-26T16:54:44.330Z,98349.17
2019-03-26T16:57:50.227Z,98349.17
2019-03-26T17:00:56.259Z,98355.17
2019-03-26T17:04:01.736Z,98355.72
2019-03-26T17:07:07.933Z,98355.97
2019-03-26T17:10:13.251Z,98356.01
2019-03-26T17:13:19.364Z,98356.01
2019-03-26T17:16:24.546Z,98358.66
2019-03-26T17:19:32.470Z,98351.70
2019-03-26T17:22:37.430Z,98360.53
2019-03-26T17:25:42.905Z,98356.58
2019-03-26T17:28:48.170Z,98352.78
2019-03-26T17:31:52.962Z,98353.89
2019-03-26T17:34:57.669Z,98353.34
2019-03-26T17:38:02.060Z,98357.30
2019-03-26T17:41:07.309Z,98358.64
2019-03-26T17:44:12.287Z,98355.47
2019-03-26T17:47:18.299Z,98355.72
2019-03-26T17:50:24.499Z,98361.91
2019-03-26T17:53:33.975Z,98360.28
2019-03-26T17:56:39.356Z,98363.94
2019-03-26T17:59:45.727Z,98362.23
2019-03-26T18:02:49.873Z,98373.84
2019-03-26T18:05:54.612Z,98354.67
2019-03-26T18:09:01.610Z,98354.67
2019-03-26T18:12:08.286Z,98370.33
2019-03-26T18:15:13.479Z,98372.44
2019-03-26T18:18:18.424Z,98373.00
2019-03-26T18:21:24.378Z,98375.23
2019-03-26T18:24:29.717Z,98383.61
2019-03-26T18:27:35.568Z,98383.88
2019-03-26T18:30:43.413Z,98393.31
2019-03-26T18:33:50.334Z,98389.45
2019-03-26T18:36:56.300Z,98402.57
2019-03-26T18:40:01.485Z,98394.09
2019-03-26T18:43:06.440Z,98394.91
2019-03-26T18:46:11.301Z,98394.09
2019-03-26T18:49:16.419Z,98400.03
2019-03-26T18:52:21.759Z,98398.69
2019-03-26T18:55:29.236Z,98399.69
2019-03-26T18:58:33.919Z,98405.95
2019-03-26T19:01:40.746Z,98392.48
2019-03-26T19:04:45.087Z,98392.48
2019-03-26T19:07:50.870Z,98408.41
2019-03-26T19:10:56.328Z,98411.85
2019-03-26T19:14:03.288Z,98413.02
2019-03-26T19:17:08.842Z,98410.59
2019-03-26T19:20:13.983Z,98413.02
2019-03-26T19:23:19.262Z,98413.02
2019-03-26T19:26:24.328Z,98418.47
2019-03-26T19:29:29.552Z,98426.95
2019-03-26T19:32:34.499Z,98423.89
2019-03-26T19:35:39.450Z,98425.28
2019-03-26T19:38:44.307Z,98428.47
2019-03-26T19:41:50.975Z,98422.05
2019-03-26T19:44:55.732Z,98425.31
2019-03-26T19:48:02.255Z,98421.80
2019-03-26T19:51:07.382Z,98415.83
2019-03-26T19:54:12.255Z,98427.64
2019-03-26T19:57:19.626Z,98434.27
2019-03-26T20:00:26.814Z,98420.42
2019-03-26T20:03:32.236Z,98423.44
2019-03-26T20:06:37.555Z,98431.87
2019-03-26T20:09:42.559Z,98434.58
2019-03-26T20:12:47.749Z,98433.84
2019-03-26T20:15:52.319Z,98434.38
2019-03-26T20:18:57.626Z,98435.78
2019-03-26T20:22:03.400Z,98430.40
2019-03-26T20:25:08.358Z,98441.19
2019-03-26T20:28:14.802Z,98448.27
2019-03-26T20:31:20.395Z,98457.52
2019-03-26T20:34:26.689Z,98457.52
2019-03-26T20:37:31.502Z,98469.14
2019-03-26T20:40:36.953Z,98470.30
2019-03-26T20:43:41.758Z,98486.25
2019-03-26T20:46:46.292Z,98486.25
2019-03-26T20:49:52.101Z,98467.86
2019-03-26T20:52:58.295Z,98476.77
2019-03-26T20:56:03.357Z,98481.93
2019-03-26T20:59:08.783Z,98474.06
2019-03-26T21:02:13.880Z,98471.38
2019-03-26T21:05:19.295Z,98482.73
2019-03-26T21:08:24.632Z,98482.73
2019-03-26T21:11:30.295Z,98486.22
2019-03-26T21:14:35.552Z,98484.64
2019-03-26T21:17:40.545Z,98489.81
2019-03-26T21:20:45.616Z,98489.81
2019-03-26T21:23:50.529Z,98496.89
2019-03-26T21:26:55.524Z,98499.30
2019-03-26T21:30:10.080Z,98486.91
2019-03-26T21:33:08.404Z,98486.91
2019-03-26T21:36:13.864Z,98518.31
2019-03-26T21:39:20.401Z,98487.50
2019-03-26T21:42:27.675Z,98519.97
2019-03-26T21:45:40.646Z,98509.95
2019-03-26T21:48:45.468Z,98519.11
2019-03-26T21:51:50.573Z,98500.48
2019-03-26T21:54:55.332Z,98508.58
2019-03-26T21:58:00.712Z,98526.70
2019-03-26T22:01:07.400Z,98523.73
2019-03-26T22:04:12.759Z,98514.84
2019-03-26T22:07:19.465Z,98514.84
2019-03-26T22:10:24.403Z,98515.11
2019-03-26T22:13:30.021Z,98521.84
2019-03-26T22:16:36.008Z,98527.29
2019-03-26T22:19:40.980Z,98529.41
2019-03-26T22:22:46.009Z,98528.59
2019-03-26T22:25:51.268Z,98531.88
2019-03-26T22:28:56.059Z,98516.72
2019-03-26T22:32:02.763Z,98516.72
2019-03-26T22:35:08.766Z,98537.27
2019-03-26T22:38:13.366Z,98529.95
2019-03-26T22:41:18.686Z,98539.75
2019-03-26T22:44:31.269Z,98536.19
2019-03-26T22:47:30.333Z,98543.50
2019-03-26T22:50:35.548Z,98524.59
2019-03-26T22:53:41.721Z,98535.67
2019-03-26T22:56:46.111Z,98547.56
2019-03-26T22:59:50.947Z,98546.50
2019-03-26T23:02:55.655Z,98542.45
2019-03-26T23:06:00.323Z,98542.45
2019-03-26T23:09:06.276Z,98547.86
2019-03-26T23:12:12.830Z,98542.97
2019-03-26T23:15:24.277Z,98555.70
2019-03-26T23:18:28.967Z,98558.42
2019-03-26T23:21:34.342Z,98558.42
2019-03-26T23:24:39.316Z,98556.51
2019-03-26T23:27:44.066Z,98543.27
2019-03-26T23:30:49.710Z,98547.33
2019-03-26T23:33:53.972Z,98544.87
2019-03-26T23:36:58.769Z,98552.74
2019-03-26T23:40:04.091Z,98555.72
2019-03-26T23:43:09.056Z,98558.40
2019-03-26T23:46:13.666Z,98554.09
2019-03-26T23:49:18.307Z,98556.23
2019-03-26T23:52:23.279Z,98564.93
2019-03-26T23:55:27.953Z,98566.55
2019-03-26T23:58:32.799Z,98567.07
